PWSweather.com
Personal Weather Stations
Station Observations
MACKBIG
Historic Main Street, Unionville, ON L3R6A5

Historic Main StreetUnionville, ON L3R6A5

Lat: 43.875506, Lon: -79.312903

Elevation: 590

Station Type: Davis VP2 + 6163

http://www.mackweather.com

Latest ConditionsUpdated 10:10:09 PM EST Saturday, Nov 22, 2014
Currently Today's Max Today's Min Today's Average
Temperature 40.2°F4.6°C 40.2°F4.6°C 21.6°F-5.8°C 32.9°F0.5°C
Dew Point 38.1°F3.4°C 38.1°F3.4°C 13.0°F-10.6°C 28.0°F-2.2°C
Winds Calm Calm 10.0 mph SW16.1 kmh SW - 3.4 mph 5.5 kmh
Wind Gusts -- 20.0 mph32.2 kmh - -
Humidity 92% 92% 69% 82%
Pressure 29.91 in1012.9 mb 30.34 in1027.4 mb 29.90 in1012.5 mb -
Precipitation - 0.18 in4.6 mm - -
Hour Temp Dew Point Humidity Winds Wind Gusts Pressure Precip Precip Rate Daily Precip Total
10:10 PM 40.2°F4.6°C 38.1°F3.4°C 92% Calm Calm -- 29.91 in1012.9 mb 0.01 in0.3 mm 0.06 in/hr1.5 mm/hr 0.18 in4.6 mm
10:00 PM 40.2°F4.6°C 38.1°F3.4°C 92% 1.0 mph SW1.6 kmh SW -- 29.91 in1012.9 mb 0.00 in0.0 mm 0.00 in/hr0.0 mm/hr 0.17 in4.3 mm
09:50 PM 40.2°F4.6°C 38.1°F3.4°C 92% Calm Calm 7.0 mph11.3 kmh 29.91 in1012.9 mb 0.00 in0.0 mm 0.00 in/hr0.0 mm/hr 0.17 in4.3 mm
09:40 PM 40.1°F4.5°C 38.0°F3.3°C 92% 2.0 mph SW3.2 kmh SW 3.0 mph4.8 kmh 29.91 in1012.9 mb 0.01 in0.3 mm 0.06 in/hr1.5 mm/hr 0.17 in4.3 mm
09:30 PM 40.2°F4.6°C 38.1°F3.4°C 92% 1.0 mph SW1.6 kmh SW -- 29.91 in1012.9 mb 0.00 in0.0 mm 0.00 in/hr0.0 mm/hr 0.17 in4.3 mm
09:20 PM 40.2°F4.6°C 38.1°F3.4°C 92% 2.0 mph SW3.2 kmh SW 5.0 mph8.0 kmh 29.91 in1012.9 mb 0.00 in0.0 mm 0.00 in/hr0.0 mm/hr 0.17 in4.3 mm
09:10 PM 40.1°F4.5°C 38.0°F3.3°C 92% 1.0 mph WSW1.6 kmh WSW 3.0 mph4.8 kmh 29.92 in1013.2 mb 0.00 in0.0 mm 0.00 in/hr0.0 mm/hr 0.17 in4.3 mm
09:00 PM 40.1°F4.5°C 38.0°F3.3°C 92% 2.0 mph SW3.2 kmh SW 3.0 mph4.8 kmh 29.92 in1013.2 mb 0.01 in0.3 mm 0.01 in/hr0.3 mm/hr 0.17 in4.3 mm
08:50 PM 40.1°F4.5°C 38.0°F3.3°C 92% 1.0 mph WSW1.6 kmh WSW 1.0 mph1.6 kmh 29.91 in1012.9 mb 0.00 in0.0 mm 0.00 in/hr0.0 mm/hr 0.16 in4.1 mm
08:40 PM 40.1°F4.5°C 37.7°F3.2°C 91% 3.0 mph SW4.8 kmh SW 7.0 mph11.3 kmh 29.91 in1012.9 mb 0.00 in0.0 mm 0.00 in/hr0.0 mm/hr 0.16 in4.1 mm
08:30 PM 40.1°F4.5°C 37.7°F3.2°C 91% 2.0 mph WSW3.2 kmh WSW 5.0 mph8.0 kmh 29.91 in1012.9 mb 0.01 in0.3 mm 0.00 in/hr0.0 mm/hr 0.16 in4.1 mm
08:20 PM 39.9°F4.4°C 37.5°F3.1°C 91% 2.0 mph W3.2 kmh W 5.0 mph8.0 kmh 29.91 in1012.9 mb 0.01 in0.3 mm 0.06 in/hr1.5 mm/hr 0.15 in3.8 mm
08:10 PM 39.8°F4.3°C 37.4°F3.0°C 91% 1.0 mph SW1.6 kmh SW 7.0 mph11.3 kmh 29.91 in1012.9 mb 0.00 in0.0 mm 0.00 in/hr0.0 mm/hr 0.14 in3.6 mm
08:00 PM 39.7°F4.3°C 37.3°F2.9°C 91% Calm Calm 2.0 mph3.2 kmh 29.91 in1012.9 mb 0.01 in0.3 mm 0.01 in/hr0.3 mm/hr 0.14 in3.6 mm
07:50 PM 39.5°F4.2°C 37.1°F2.8°C 91% 5.0 mph SW8.0 kmh SW 9.0 mph14.5 kmh 29.93 in1013.5 mb 0.00 in0.0 mm 0.00 in/hr0.0 mm/hr 0.13 in3.3 mm
07:40 PM 39.5°F4.2°C 37.1°F2.8°C 91% Calm Calm -- 29.92 in1013.2 mb 0.00 in0.0 mm 0.00 in/hr0.0 mm/hr 0.13 in3.3 mm
07:30 PM 39.5°F4.2°C 37.1°F2.8°C 91% 2.0 mph SW3.2 kmh SW 6.0 mph9.7 kmh 29.92 in1013.2 mb 0.01 in0.3 mm 0.06 in/hr1.5 mm/hr 0.13 in3.3 mm
07:20 PM 39.6°F4.2°C 37.2°F2.9°C 91% 3.0 mph SW4.8 kmh SW 6.0 mph9.7 kmh 29.92 in1013.2 mb 0.00 in0.0 mm 0.00 in/hr0.0 mm/hr 0.13 in3.3 mm
07:10 PM 39.5°F4.2°C 37.1°F2.8°C 91% 7.0 mph WSW11.3 kmh WSW 14.0 mph22.5 kmh 29.92 in1013.2 mb 0.00 in0.0 mm 0.00 in/hr0.0 mm/hr 0.13 in3.3 mm
07:00 PM 39.4°F4.1°C 37.0°F2.8°C 91% 3.0 mph SW4.8 kmh SW 3.0 mph4.8 kmh 29.92 in1013.2 mb 0.00 in0.0 mm 0.00 in/hr0.0 mm/hr 0.13 in3.3 mm
06:50 PM 39.3°F4.1°C 36.9°F2.7°C 91% 3.0 mph SW4.8 kmh SW 7.0 mph11.3 kmh 29.91 in1012.9 mb 0.01 in0.3 mm 0.06 in/hr1.5 mm/hr 0.13 in3.3 mm
06:40 PM 39.2°F4.0°C 36.8°F2.7°C 91% 5.0 mph SW8.0 kmh SW 7.0 mph11.3 kmh 29.91 in1012.9 mb 0.00 in0.0 mm 0.00 in/hr0.0 mm/hr 0.12 in3.0 mm
06:30 PM 39.2°F4.0°C 36.8°F2.7°C 91% 7.0 mph SW11.3 kmh SW 12.0 mph19.3 kmh 29.91 in1012.9 mb 0.01 in0.3 mm 0.00 in/hr0.0 mm/hr 0.12 in3.0 mm
06:20 PM 39.1°F3.9°C 36.7°F2.6°C 91% 5.0 mph SW8.0 kmh SW 7.0 mph11.3 kmh 29.92 in1013.2 mb 0.01 in0.3 mm 0.06 in/hr1.5 mm/hr 0.12 in3.0 mm
06:10 PM 39.0°F3.9°C 36.6°F2.6°C 91% 3.0 mph SW4.8 kmh SW 6.0 mph9.7 kmh 29.92 in1013.2 mb 0.00 in0.0 mm 0.00 in/hr0.0 mm/hr 0.11 in2.8 mm
06:00 PM 38.9°F3.8°C 36.5°F2.5°C 91% 6.0 mph SW9.7 kmh SW 8.0 mph12.9 kmh 29.92 in1013.2 mb 0.00 in0.0 mm 0.00 in/hr0.0 mm/hr 0.11 in2.8 mm
05:50 PM 38.9°F3.8°C 36.5°F2.5°C 91% 6.0 mph W9.7 kmh W 6.0 mph9.7 kmh 29.92 in1013.2 mb 0.01 in0.3 mm 0.00 in/hr0.0 mm/hr 0.11 in2.8 mm
05:40 PM 38.8°F3.8°C 36.4°F2.4°C 91% 9.0 mph WSW14.5 kmh WSW 18.0 mph29.0 kmh 29.91 in1012.9 mb 0.01 in0.3 mm 0.00 in/hr0.0 mm/hr 0.10 in2.5 mm
05:30 PM 38.8°F3.8°C 36.4°F2.4°C 91% 3.0 mph SW4.8 kmh SW 12.0 mph19.3 kmh 29.90 in1012.5 mb 0.01 in0.3 mm 0.06 in/hr1.5 mm/hr 0.10 in2.5 mm
05:20 PM 38.6°F3.7°C 36.2°F2.3°C 91% 5.0 mph SSW8.0 kmh SSW 13.0 mph20.9 kmh 29.91 in1012.9 mb 0.00 in0.0 mm 0.00 in/hr0.0 mm/hr 0.09 in2.3 mm
05:10 PM 38.4°F3.6°C 36.0°F2.2°C 91% 8.0 mph WSW12.9 kmh WSW 13.0 mph20.9 kmh 29.91 in1012.9 mb 0.01 in0.3 mm 0.06 in/hr1.5 mm/hr 0.09 in2.3 mm
05:00 PM 38.3°F3.5°C 35.9°F2.2°C 91% 7.0 mph SW11.3 kmh SW 12.0 mph19.3 kmh 29.92 in1013.2 mb 0.00 in0.0 mm 0.00 in/hr0.0 mm/hr 0.09 in2.3 mm
04:50 PM 38.2°F3.4°C 35.8°F2.1°C 91% 8.0 mph SW12.9 kmh SW 13.0 mph20.9 kmh 29.92 in1013.2 mb 0.01 in0.3 mm 0.00 in/hr0.0 mm/hr 0.09 in2.3 mm
04:40 PM 38.1°F3.4°C 35.4°F1.9°C 90% 6.0 mph SW9.7 kmh SW 9.0 mph14.5 kmh 29.92 in1013.2 mb 0.01 in0.3 mm 0.06 in/hr1.5 mm/hr 0.09 in2.3 mm
04:30 PM 38.0°F3.3°C 35.3°F1.8°C 90% 5.0 mph SW8.0 kmh SW 10.0 mph16.1 kmh 29.91 in1012.9 mb 0.00 in0.0 mm 0.00 in/hr0.0 mm/hr 0.08 in2.0 mm
04:20 PM 38.0°F3.3°C 35.3°F1.8°C 90% 6.0 mph WSW9.7 kmh WSW 12.0 mph19.3 kmh 29.91 in1012.9 mb 0.01 in0.3 mm 0.06 in/hr1.5 mm/hr 0.08 in2.0 mm
04:10 PM 38.0°F3.3°C 35.3°F1.8°C 90% 5.0 mph SW8.0 kmh SW 9.0 mph14.5 kmh 29.91 in1012.9 mb 0.00 in0.0 mm 0.00 in/hr0.0 mm/hr 0.07 in1.8 mm
04:00 PM 37.9°F3.3°C 35.2°F1.8°C 90% 8.0 mph WSW12.9 kmh WSW 15.0 mph24.1 kmh 29.91 in1012.9 mb 0.01 in0.3 mm 0.01 in/hr0.3 mm/hr 0.07 in1.8 mm
03:50 PM 37.9°F3.3°C 35.2°F1.8°C 90% 6.0 mph WSW9.7 kmh WSW 6.0 mph9.7 kmh 29.91 in1012.9 mb 0.00 in0.0 mm 0.00 in/hr0.0 mm/hr 0.06 in1.5 mm
03:40 PM 37.7°F3.2°C 35.0°F1.7°C 90% 5.0 mph SW8.0 kmh SW 8.0 mph12.9 kmh 29.91 in1012.9 mb 0.01 in0.3 mm 0.06 in/hr1.5 mm/hr 0.06 in1.5 mm
03:30 PM 37.5°F3.1°C 34.9°F1.6°C 90% 7.0 mph SW11.3 kmh SW 12.0 mph19.3 kmh 29.91 in1012.9 mb 0.00 in0.0 mm 0.00 in/hr0.0 mm/hr 0.06 in1.5 mm
03:20 PM 37.4°F3.0°C 34.7°F1.5°C 90% 7.0 mph WSW11.3 kmh WSW 13.0 mph20.9 kmh 29.92 in1013.2 mb 0.01 in0.3 mm 0.06 in/hr1.5 mm/hr 0.06 in1.5 mm
03:10 PM 37.3°F2.9°C 34.4°F1.3°C 89% 5.0 mph WSW8.0 kmh WSW 13.0 mph20.9 kmh 29.91 in1012.9 mb 0.00 in0.0 mm 0.00 in/hr0.0 mm/hr 0.05 in1.3 mm
03:00 PM 37.2°F2.9°C 34.3°F1.3°C 89% 6.0 mph SW9.7 kmh SW 12.0 mph19.3 kmh 29.91 in1012.9 mb 0.00 in0.0 mm 0.00 in/hr0.0 mm/hr 0.05 in1.3 mm
02:50 PM 37.1°F2.8°C 34.2°F1.2°C 89% 6.0 mph WSW9.7 kmh WSW 12.0 mph19.3 kmh 29.91 in1012.9 mb 0.01 in0.3 mm 0.06 in/hr1.5 mm/hr 0.05 in1.3 mm
02:40 PM 37.1°F2.8°C 33.9°F1.1°C 88% 8.0 mph WSW12.9 kmh WSW 15.0 mph24.1 kmh 29.91 in1012.9 mb 0.00 in0.0 mm 0.00 in/hr0.0 mm/hr 0.04 in1.0 mm
02:30 PM 37.3°F2.9°C 34.1°F1.2°C 88% 10.0 mph SW16.1 kmh SW 16.0 mph25.7 kmh 29.92 in1013.2 mb 0.01 in0.3 mm 0.06 in/hr1.5 mm/hr 0.04 in1.0 mm
02:20 PM 37.3°F2.9°C 33.8°F1.0°C 87% 6.0 mph SW9.7 kmh SW 12.0 mph19.3 kmh 29.92 in1013.2 mb 0.00 in0.0 mm 0.00 in/hr0.0 mm/hr 0.03 in0.8 mm
02:10 PM 37.3°F2.9°C 33.8°F1.0°C 87% 6.0 mph SW9.7 kmh SW 12.0 mph19.3 kmh 29.93 in1013.5 mb 0.01 in0.3 mm 0.06 in/hr1.5 mm/hr 0.03 in0.8 mm
02:00 PM 37.4°F3.0°C 33.6°F0.9°C 86% 7.0 mph SW11.3 kmh SW 15.0 mph24.1 kmh 29.93 in1013.5 mb 0.00 in0.0 mm 0.00 in/hr0.0 mm/hr 0.02 in0.5 mm
01:50 PM 37.5°F3.1°C 33.4°F0.8°C 85% 2.0 mph WSW3.2 kmh WSW 5.0 mph8.0 kmh 29.93 in1013.5 mb 0.01 in0.3 mm 0.06 in/hr1.5 mm/hr 0.02 in0.5 mm
01:40 PM 37.5°F3.1°C 33.4°F0.8°C 85% 5.0 mph SW8.0 kmh SW 12.0 mph19.3 kmh 29.94 in1013.9 mb 0.00 in0.0 mm 0.00 in/hr0.0 mm/hr 0.02 in0.5 mm
01:30 PM 37.5°F3.1°C 33.1°F0.6°C 84% 5.0 mph SW8.0 kmh SW 12.0 mph19.3 kmh 29.95 in1014.2 mb 0.01 in0.3 mm 0.06 in/hr1.5 mm/hr 0.02 in0.5 mm
01:20 PM 37.2°F2.9°C 32.5°F0.3°C 83% 8.0 mph SW12.9 kmh SW 17.0 mph27.4 kmh 29.94 in1013.9 mb 0.00 in0.0 mm 0.00 in/hr0.0 mm/hr 0.01 in0.3 mm
01:10 PM 37.1°F2.8°C 32.1°F0.1°C 82% 7.0 mph SW11.3 kmh SW 14.0 mph22.5 kmh 29.95 in1014.2 mb 0.00 in0.0 mm 0.00 in/hr0.0 mm/hr 0.01 in0.3 mm
01:00 PM 37.1°F2.8°C 32.1°F0.1°C 82% 7.0 mph WSW11.3 kmh WSW 5.0 mph8.0 kmh 29.96 in1014.6 mb 0.01 in0.3 mm 0.01 in/hr0.3 mm/hr 0.01 in0.3 mm
12:50 PM 37.0°F2.8°C 31.7°F-0.2°C 81% 2.0 mph SW3.2 kmh SW 6.0 mph9.7 kmh 29.96 in1014.6 mb 0.00 in0.0 mm 0.00 in/hr0.0 mm/hr 0.00 in0.0 mm
12:40 PM 37.0°F2.8°C 31.1°F-0.5°C 79% 8.0 mph SW12.9 kmh SW 13.0 mph20.9 kmh 29.96 in1014.6 mb 0.00 in0.0 mm 0.00 in/hr0.0 mm/hr 0.00 in0.0 mm
12:30 PM 37.1°F2.8°C 30.5°F-0.8°C 77% 5.0 mph SW8.0 kmh SW 9.0 mph14.5 kmh 29.96 in1014.6 mb 0.00 in0.0 mm 0.00 in/hr0.0 mm/hr 0.00 in0.0 mm
12:20 PM 37.1°F2.8°C 29.9°F-1.2°C 75% 6.0 mph SW9.7 kmh SW 20.0 mph32.2 kmh 29.98 in1015.2 mb 0.00 in0.0 mm 0.00 in/hr0.0 mm/hr 0.00 in0.0 mm
12:10 PM 36.9°F2.7°C 29.7°F-1.3°C 75% 7.0 mph WSW11.3 kmh WSW 18.0 mph29.0 kmh 29.99 in1015.6 mb 0.00 in0.0 mm 0.00 in/hr0.0 mm/hr 0.00 in0.0 mm
12:00 PM 36.3°F2.4°C 28.8°F-1.8°C 74% 2.0 mph SSW3.2 kmh SSW 13.0 mph20.9 kmh 29.99 in1015.6 mb 0.00 in0.0 mm 0.00 in/hr0.0 mm/hr 0.00 in0.0 mm
11:50 AM 36.0°F2.2°C 28.5°F-1.9°C 74% 7.0 mph SW11.3 kmh SW 8.0 mph12.9 kmh 30.00 in1015.9 mb 0.00 in0.0 mm 0.00 in/hr0.0 mm/hr 0.00 in0.0 mm
11:40 AM 35.8°F2.1°C 28.3°F-2.1°C 74% 3.0 mph SSW4.8 kmh SSW 8.0 mph12.9 kmh 30.00 in1015.9 mb 0.00 in0.0 mm 0.00 in/hr0.0 mm/hr 0.00 in0.0 mm
11:30 AM 35.8°F2.1°C 28.0°F-2.2°C 73% 9.0 mph SW14.5 kmh SW 10.0 mph16.1 kmh 30.00 in1015.9 mb 0.00 in0.0 mm 0.00 in/hr0.0 mm/hr 0.00 in0.0 mm
11:20 AM 35.7°F2.1°C 27.9°F-2.3°C 73% 5.0 mph SW8.0 kmh SW 12.0 mph19.3 kmh 30.02 in1016.6 mb 0.00 in0.0 mm 0.00 in/hr0.0 mm/hr 0.00 in0.0 mm
11:10 AM 35.4°F1.9°C 27.6°F-2.4°C 73% 3.0 mph WSW4.8 kmh WSW 16.0 mph25.7 kmh 30.03 in1016.9 mb 0.00 in0.0 mm 0.00 in/hr0.0 mm/hr 0.00 in0.0 mm
11:00 AM 35.1°F1.7°C 27.0°F-2.8°C 72% 3.0 mph SW4.8 kmh SW 5.0 mph8.0 kmh 30.04 in1017.3 mb 0.00 in0.0 mm 0.00 in/hr0.0 mm/hr 0.00 in0.0 mm
10:50 AM 34.8°F1.6°C 27.0°F-2.8°C 73% 3.0 mph SW4.8 kmh SW 9.0 mph14.5 kmh 30.04 in1017.3 mb 0.00 in0.0 mm 0.00 in/hr0.0 mm/hr 0.00 in0.0 mm
10:40 AM 34.4°F1.3°C 26.6°F-3.0°C 73% 3.0 mph SW4.8 kmh SW 7.0 mph11.3 kmh 30.05 in1017.6 mb 0.00 in0.0 mm 0.00 in/hr0.0 mm/hr 0.00 in0.0 mm
10:30 AM 34.2°F1.2°C 26.1°F-3.3°C 72% 2.0 mph WSW3.2 kmh WSW 6.0 mph9.7 kmh 30.06 in1017.9 mb 0.00 in0.0 mm 0.00 in/hr0.0 mm/hr 0.00 in0.0 mm
10:20 AM 34.3°F1.3°C 26.5°F-3.1°C 73% 6.0 mph SW9.7 kmh SW 17.0 mph27.4 kmh 30.06 in1017.9 mb 0.00 in0.0 mm 0.00 in/hr0.0 mm/hr 0.00 in0.0 mm
10:10 AM 34.3°F1.3°C 26.9°F-2.8°C 74% 5.0 mph SW8.0 kmh SW 12.0 mph19.3 kmh 30.07 in1018.3 mb 0.00 in0.0 mm 0.00 in/hr0.0 mm/hr 0.00 in0.0 mm
10:00 AM 33.9°F1.1°C 26.8°F-2.9°C 75% 2.0 mph SW3.2 kmh SW 8.0 mph12.9 kmh 30.07 in1018.3 mb 0.00 in0.0 mm 0.00 in/hr0.0 mm/hr 0.00 in0.0 mm
09:50 AM 33.4°F0.8°C 26.3°F-3.2°C 75% Calm Calm -- 30.08 in1018.6 mb 0.00 in0.0 mm 0.00 in/hr0.0 mm/hr 0.00 in0.0 mm
09:40 AM 33.0°F0.6°C 26.3°F-3.2°C 76% 3.0 mph SW4.8 kmh SW 6.0 mph9.7 kmh 30.08 in1018.6 mb 0.00 in0.0 mm 0.00 in/hr0.0 mm/hr 0.00 in0.0 mm
09:30 AM 32.8°F0.4°C 26.1°F-3.3°C 76% 2.0 mph SW3.2 kmh SW 6.0 mph9.7 kmh 30.09 in1019.0 mb 0.00 in0.0 mm 0.00 in/hr0.0 mm/hr 0.00 in0.0 mm
09:20 AM 32.5°F0.3°C 26.1°F-3.3°C 77% 1.0 mph SW1.6 kmh SW 2.0 mph3.2 kmh 30.09 in1019.0 mb 0.00 in0.0 mm 0.00 in/hr0.0 mm/hr 0.00 in0.0 mm
09:10 AM 32.3°F0.2°C 25.9°F-3.4°C 77% Calm Calm 8.0 mph12.9 kmh 30.10 in1019.3 mb 0.00 in0.0 mm 0.00 in/hr0.0 mm/hr 0.00 in0.0 mm
09:00 AM 32.1°F0.1°C 26.0°F-3.3°C 78% Calm Calm 3.0 mph4.8 kmh 30.11 in1019.6 mb 0.00 in0.0 mm 0.00 in/hr0.0 mm/hr 0.00 in0.0 mm
08:50 AM 31.6°F-0.2°C 25.9°F-3.4°C 79% 3.0 mph SW4.8 kmh SW 7.0 mph11.3 kmh 30.11 in1019.6 mb 0.00 in0.0 mm 0.00 in/hr0.0 mm/hr 0.00 in0.0 mm
08:40 AM 31.1°F-0.5°C 25.7°F-3.5°C 80% 1.0 mph SW1.6 kmh SW 3.0 mph4.8 kmh 30.11 in1019.6 mb 0.00 in0.0 mm 0.00 in/hr0.0 mm/hr 0.00 in0.0 mm
08:30 AM 30.6°F-0.8°C 25.2°F-3.8°C 80% 1.0 mph SSW1.6 kmh SSW 6.0 mph9.7 kmh 30.13 in1020.3 mb 0.00 in0.0 mm 0.00 in/hr0.0 mm/hr 0.00 in0.0 mm
08:20 AM 30.2°F-1.0°C 25.1°F-3.8°C 81% 1.0 mph S1.6 kmh S 3.0 mph4.8 kmh 30.13 in1020.3 mb 0.00 in0.0 mm 0.00 in/hr0.0 mm/hr 0.00 in0.0 mm
08:10 AM 29.8°F-1.2°C 24.7°F-4.1°C 81% 1.0 mph SW1.6 kmh SW 6.0 mph9.7 kmh 30.14 in1020.7 mb 0.00 in0.0 mm 0.00 in/hr0.0 mm/hr 0.00 in0.0 mm
08:00 AM 29.6°F-1.3°C 24.8°F-4.0°C 82% Calm Calm -- 30.14 in1020.7 mb 0.00 in0.0 mm 0.00 in/hr0.0 mm/hr 0.00 in0.0 mm
07:50 AM 29.3°F-1.5°C 24.5°F-4.2°C 82% 1.0 mph SW1.6 kmh SW 3.0 mph4.8 kmh 30.14 in1020.7 mb 0.00 in0.0 mm 0.00 in/hr0.0 mm/hr 0.00 in0.0 mm
07:40 AM 29.0°F-1.7°C 24.2°F-4.3°C 82% Calm Calm -- 30.15 in1021.0 mb 0.00 in0.0 mm 0.00 in/hr0.0 mm/hr 0.00 in0.0 mm
07:30 AM 28.8°F-1.8°C 24.0°F-4.4°C 82% Calm Calm 2.0 mph3.2 kmh 30.16 in1021.3 mb 0.00 in0.0 mm 0.00 in/hr0.0 mm/hr 0.00 in0.0 mm
07:20 AM 28.5°F-1.9°C 23.7°F-4.6°C 82% 1.0 mph SW1.6 kmh SW 3.0 mph4.8 kmh 30.16 in1021.3 mb 0.00 in0.0 mm 0.00 in/hr0.0 mm/hr 0.00 in0.0 mm
07:10 AM 28.2°F-2.1°C 23.4°F-4.8°C 82% Calm Calm 3.0 mph4.8 kmh 30.16 in1021.3 mb 0.00 in0.0 mm 0.00 in/hr0.0 mm/hr 0.00 in0.0 mm
07:00 AM 28.0°F-2.2°C 23.2°F-4.9°C 82% 2.0 mph SW3.2 kmh SW 3.0 mph4.8 kmh 30.17 in1021.7 mb 0.00 in0.0 mm 0.00 in/hr0.0 mm/hr 0.00 in0.0 mm
06:50 AM 27.8°F-2.3°C 23.0°F-5.0°C 82% 2.0 mph SW3.2 kmh SW 3.0 mph4.8 kmh 30.18 in1022.0 mb 0.00 in0.0 mm 0.00 in/hr0.0 mm/hr 0.00 in0.0 mm
06:40 AM 27.6°F-2.4°C 22.5°F-5.3°C 81% 1.0 mph SW1.6 kmh SW 5.0 mph8.0 kmh 30.18 in1022.0 mb 0.00 in0.0 mm 0.00 in/hr0.0 mm/hr 0.00 in0.0 mm
06:30 AM 27.5°F-2.5°C 22.4°F-5.3°C 81% 1.0 mph SW1.6 kmh SW 3.0 mph4.8 kmh 30.18 in1022.0 mb 0.00 in0.0 mm 0.00 in/hr0.0 mm/hr 0.00 in0.0 mm
06:20 AM 27.4°F-2.6°C 22.3°F-5.4°C 81% Calm Calm 3.0 mph4.8 kmh 30.18 in1022.0 mb 0.00 in0.0 mm 0.00 in/hr0.0 mm/hr 0.00 in0.0 mm
06:10 AM 27.2°F-2.7°C 22.1°F-5.5°C 81% Calm Calm 2.0 mph3.2 kmh 30.18 in1022.0 mb 0.00 in0.0 mm 0.00 in/hr0.0 mm/hr 0.00 in0.0 mm
06:00 AM 26.9°F-2.8°C 21.9°F-5.6°C 81% 2.0 mph WSW3.2 kmh WSW 3.0 mph4.8 kmh 30.20 in1022.7 mb 0.00 in0.0 mm 0.00 in/hr0.0 mm/hr 0.00 in0.0 mm
05:50 AM 26.7°F-2.9°C 21.4°F-5.9°C 80% 1.0 mph SW1.6 kmh SW 6.0 mph9.7 kmh 30.20 in1022.7 mb 0.00 in0.0 mm 0.00 in/hr0.0 mm/hr 0.00 in0.0 mm
05:40 AM 26.5°F-3.1°C 21.2°F-6.0°C 80% 2.0 mph SW3.2 kmh SW 5.0 mph8.0 kmh 30.20 in1022.7 mb 0.00 in0.0 mm 0.00 in/hr0.0 mm/hr 0.00 in0.0 mm
05:30 AM 26.4°F-3.1°C 21.1°F-6.1°C 80% 3.0 mph WSW4.8 kmh WSW 5.0 mph8.0 kmh 30.21 in1023.0 mb 0.00 in0.0 mm 0.00 in/hr0.0 mm/hr 0.00 in0.0 mm
05:20 AM 26.3°F-3.2°C 21.0°F-6.1°C 80% 2.0 mph SW3.2 kmh SW 3.0 mph4.8 kmh 30.21 in1023.0 mb 0.00 in0.0 mm 0.00 in/hr0.0 mm/hr 0.00 in0.0 mm
05:10 AM 26.2°F-3.2°C 20.9°F-6.2°C 80% 6.0 mph SW9.7 kmh SW 10.0 mph16.1 kmh 30.22 in1023.4 mb 0.00 in0.0 mm 0.00 in/hr0.0 mm/hr 0.00 in0.0 mm
05:00 AM 26.1°F-3.3°C 20.8°F-6.2°C 80% 5.0 mph WSW8.0 kmh WSW 8.0 mph12.9 kmh 30.22 in1023.4 mb 0.00 in0.0 mm 0.00 in/hr0.0 mm/hr 0.00 in0.0 mm
04:50 AM 25.8°F-3.4°C 20.2°F-6.6°C 79% 2.0 mph SW3.2 kmh SW 12.0 mph19.3 kmh 30.22 in1023.4 mb 0.00 in0.0 mm 0.00 in/hr0.0 mm/hr 0.00 in0.0 mm
04:40 AM 25.7°F-3.5°C 20.1°F-6.6°C 79% 5.0 mph SW8.0 kmh SW 5.0 mph8.0 kmh 30.23 in1023.7 mb 0.00 in0.0 mm 0.00 in/hr0.0 mm/hr 0.00 in0.0 mm
04:30 AM 25.5°F-3.6°C 19.9°F-6.7°C 79% 3.0 mph SW4.8 kmh SW 5.0 mph8.0 kmh 30.24 in1024.0 mb 0.00 in0.0 mm 0.00 in/hr0.0 mm/hr 0.00 in0.0 mm
04:20 AM 25.5°F-3.6°C 19.6°F-6.9°C 78% 6.0 mph SW9.7 kmh SW 12.0 mph19.3 kmh 30.24 in1024.0 mb 0.00 in0.0 mm 0.00 in/hr0.0 mm/hr 0.00 in0.0 mm
04:10 AM 25.6°F-3.6°C 19.6°F-6.9°C 78% 6.0 mph WSW9.7 kmh WSW 13.0 mph20.9 kmh 30.25 in1024.4 mb 0.00 in0.0 mm 0.00 in/hr0.0 mm/hr 0.00 in0.0 mm
04:00 AM 25.6°F-3.6°C 19.7°F-6.8°C 78% 7.0 mph W11.3 kmh W 7.0 mph11.3 kmh 30.25 in1024.4 mb 0.00 in0.0 mm 0.00 in/hr0.0 mm/hr 0.00 in0.0 mm
03:50 AM 25.6°F-3.6°C 19.7°F-6.8°C 78% 3.0 mph S4.8 kmh S 12.0 mph19.3 kmh 30.25 in1024.4 mb 0.00 in0.0 mm 0.00 in/hr0.0 mm/hr 0.00 in0.0 mm
03:40 AM 25.5°F-3.6°C 19.6°F-6.9°C 78% 6.0 mph SW9.7 kmh SW 7.0 mph11.3 kmh 30.26 in1024.7 mb 0.00 in0.0 mm 0.00 in/hr0.0 mm/hr 0.00 in0.0 mm
03:30 AM 25.5°F-3.6°C 19.6°F-6.9°C 78% 3.0 mph WSW4.8 kmh WSW 13.0 mph20.9 kmh 30.26 in1024.7 mb 0.00 in0.0 mm 0.00 in/hr0.0 mm/hr 0.00 in0.0 mm
03:20 AM 25.4°F-3.7°C 19.5°F-6.9°C 78% 5.0 mph SW8.0 kmh SW 9.0 mph14.5 kmh 30.27 in1025.1 mb 0.00 in0.0 mm 0.00 in/hr0.0 mm/hr 0.00 in0.0 mm
03:10 AM 25.3°F-3.7°C 19.4°F-7.0°C 78% 6.0 mph WSW9.7 kmh WSW 8.0 mph12.9 kmh 30.27 in1025.1 mb 0.00 in0.0 mm 0.00 in/hr0.0 mm/hr 0.00 in0.0 mm
03:00 AM 25.1°F-3.8°C 18.9°F-7.3°C 77% 5.0 mph SW8.0 kmh SW 6.0 mph9.7 kmh 30.27 in1025.1 mb 0.00 in0.0 mm 0.00 in/hr0.0 mm/hr 0.00 in0.0 mm
02:50 AM 25.0°F-3.9°C 18.8°F-7.3°C 77% 1.0 mph WSW1.6 kmh WSW 5.0 mph8.0 kmh 30.28 in1025.4 mb 0.00 in0.0 mm 0.00 in/hr0.0 mm/hr 0.00 in0.0 mm
02:40 AM 24.9°F-3.9°C 18.4°F-7.6°C 76% 1.0 mph SW1.6 kmh SW 3.0 mph4.8 kmh 30.28 in1025.4 mb 0.00 in0.0 mm 0.00 in/hr0.0 mm/hr 0.00 in0.0 mm
02:30 AM 24.7°F-4.1°C 18.2°F-7.7°C 76% 3.0 mph SW4.8 kmh SW 8.0 mph12.9 kmh 30.29 in1025.7 mb 0.00 in0.0 mm 0.00 in/hr0.0 mm/hr 0.00 in0.0 mm
02:20 AM 24.5°F-4.2°C 17.7°F-7.9°C 75% Calm Calm -- 30.29 in1025.7 mb 0.00 in0.0 mm 0.00 in/hr0.0 mm/hr 0.00 in0.0 mm
02:10 AM 24.3°F-4.3°C 17.5°F-8.1°C 75% 1.0 mph SW1.6 kmh SW 6.0 mph9.7 kmh 30.29 in1025.7 mb 0.00 in0.0 mm 0.00 in/hr0.0 mm/hr 0.00 in0.0 mm
02:00 AM 24.1°F-4.4°C 17.3°F-8.2°C 75% 2.0 mph SW3.2 kmh SW 5.0 mph8.0 kmh 30.29 in1025.7 mb 0.00 in0.0 mm 0.00 in/hr0.0 mm/hr 0.00 in0.0 mm
01:50 AM 23.9°F-4.5°C 16.9°F-8.4°C 74% 2.0 mph WSW3.2 kmh WSW 3.0 mph4.8 kmh 30.29 in1025.7 mb 0.00 in0.0 mm 0.00 in/hr0.0 mm/hr 0.00 in0.0 mm
01:40 AM 23.6°F-4.7°C 16.6°F-8.6°C 74% 3.0 mph SW4.8 kmh SW 6.0 mph9.7 kmh 30.30 in1026.1 mb 0.00 in0.0 mm 0.00 in/hr0.0 mm/hr 0.00 in0.0 mm
01:30 AM 23.4°F-4.8°C 16.0°F-8.9°C 73% 3.0 mph SW4.8 kmh SW 5.0 mph8.0 kmh 30.31 in1026.4 mb 0.00 in0.0 mm 0.00 in/hr0.0 mm/hr 0.00 in0.0 mm
01:20 AM 23.2°F-4.9°C 15.8°F-9.0°C 73% Calm Calm 2.0 mph3.2 kmh 30.31 in1026.4 mb 0.00 in0.0 mm 0.00 in/hr0.0 mm/hr 0.00 in0.0 mm
01:10 AM 22.9°F-5.1°C 15.2°F-9.3°C 72% 2.0 mph SW3.2 kmh SW 5.0 mph8.0 kmh 30.31 in1026.4 mb 0.00 in0.0 mm 0.00 in/hr0.0 mm/hr 0.00 in0.0 mm
01:00 AM 22.6°F-5.2°C 14.9°F-9.5°C 72% 1.0 mph SW1.6 kmh SW 3.0 mph4.8 kmh 30.32 in1026.8 mb 0.00 in0.0 mm 0.00 in/hr0.0 mm/hr 0.00 in0.0 mm
12:50 AM 22.4°F-5.3°C 14.7°F-9.6°C 72% Calm Calm -- 30.32 in1026.8 mb 0.00 in0.0 mm 0.00 in/hr0.0 mm/hr 0.00 in0.0 mm
12:40 AM 22.1°F-5.5°C 14.1°F-9.9°C 71% Calm Calm 3.0 mph4.8 kmh 30.33 in1027.1 mb 0.00 in0.0 mm 0.00 in/hr0.0 mm/hr 0.00 in0.0 mm
12:30 AM 21.8°F-5.7°C 13.6°F-10.2°C 70% Calm Calm 2.0 mph3.2 kmh 30.33 in1027.1 mb 0.00 in0.0 mm 0.00 in/hr0.0 mm/hr 0.00 in0.0 mm
12:20 AM 21.7°F-5.7°C 13.4°F-10.3°C 70% 1.0 mph WSW1.6 kmh WSW 3.0 mph4.8 kmh 30.34 in1027.4 mb 0.00 in0.0 mm 0.00 in/hr0.0 mm/hr 0.00 in0.0 mm
12:10 AM 21.7°F-5.7°C 13.4°F-10.3°C 70% 1.0 mph WSW1.6 kmh WSW 3.0 mph4.8 kmh 30.34 in1027.4 mb 0.00 in0.0 mm 0.00 in/hr0.0 mm/hr 0.00 in0.0 mm
12:00 AM 21.6°F-5.8°C 13.0°F-10.6°C 69% 1.0 mph WSW1.6 kmh WSW 3.0 mph4.8 kmh 30.34 in1027.4 mb 0.00 in0.0 mm 0.00 in/hr0.0 mm/hr 0.00 in0.0 mm